createdAt,value
2018-09-10T00:00:44.958Z,61.50
2018-09-10T00:02:49.468Z,61.60
2018-09-10T00:04:54.006Z,61.70
2018-09-10T00:06:58.492Z,61.70
2018-09-10T00:09:03.024Z,61.70
2018-09-10T00:11:07.566Z,61.80
2018-09-10T00:13:11.999Z,61.90
2018-09-10T00:15:16.582Z,61.80
2018-09-10T00:17:21.062Z,61.90
2018-09-10T00:19:25.514Z,61.90
2018-09-10T00:21:30.130Z,62.10
2018-09-10T00:23:34.596Z,62.10
2018-09-10T00:25:40.182Z,62.20
2018-09-10T00:27:44.630Z,62.30
2018-09-10T00:29:49.329Z,62.30
2018-09-10T00:31:53.857Z,62.40
2018-09-10T00:33:58.298Z,62.50
2018-09-10T00:36:02.758Z,62.40
2018-09-10T00:38:07.203Z,62.50
2018-09-10T00:40:11.671Z,62.60
2018-09-10T00:42:16.382Z,62.60
2018-09-10T00:44:20.825Z,62.60
2018-09-10T00:46:25.289Z,62.80
2018-09-10T00:48:29.755Z,62.90
2018-09-10T00:50:34.357Z,63.10
2018-09-10T00:52:38.799Z,63.30
2018-09-10T00:54:43.266Z,63.50
2018-09-10T00:56:47.734Z,63.50
2018-09-10T00:58:52.689Z,63.40
2018-09-10T01:00:57.236Z,64.10
2018-09-10T01:03:01.664Z,63.50
2018-09-10T01:05:06.231Z,64.50
2018-09-10T01:07:10.721Z,63.50
2018-09-10T01:09:15.158Z,63.50
2018-09-10T01:11:21.266Z,63.50
2018-09-10T01:13:25.686Z,63.50
2018-09-10T01:15:30.146Z,63.50
2018-09-10T01:17:34.678Z,63.50
2018-09-10T01:19:39.154Z,63.50
2018-09-10T01:21:43.614Z,63.50
2018-09-10T01:23:48.067Z,63.50
2018-09-10T01:25:52.547Z,63.50
2018-09-10T01:27:57.075Z,63.70
2018-09-10T01:30:01.532Z,63.80
2018-09-10T01:32:06.023Z,63.80
2018-09-10T01:34:15.787Z,64.00
2018-09-10T01:36:20.859Z,64.10
2018-09-10T01:38:25.350Z,64.30
2018-09-10T01:40:29.841Z,64.30
2018-09-10T01:42:34.425Z,64.30
2018-09-10T01:44:38.854Z,64.40
2018-09-10T01:46:43.445Z,64.40
2018-09-10T01:48:48.819Z,64.40
2018-09-10T01:50:53.260Z,64.60
2018-09-10T01:52:57.876Z,64.80
2018-09-10T01:55:02.378Z,64.80
2018-09-10T01:57:06.867Z,64.90
2018-09-10T01:59:11.361Z,64.80
2018-09-10T02:01:16.013Z,64.80
2018-09-10T02:03:20.769Z,64.80
2018-09-10T02:05:25.262Z,64.80
2018-09-10T02:07:29.778Z,64.80
2018-09-10T02:09:34.842Z,65.00
2018-09-10T02:11:39.354Z,64.50
2018-09-10T02:13:43.875Z,65.20
2018-09-10T02:15:52.545Z,65.30
2018-09-10T02:17:57.053Z,65.20
2018-09-10T02:20:01.499Z,65.30
2018-09-10T02:22:06.249Z,66.10
2018-09-10T02:24:10.706Z,65.30
2018-09-10T02:26:15.190Z,65.20
2018-09-10T02:28:19.670Z,65.20
2018-09-10T02:30:24.324Z,65.20
2018-09-10T02:32:28.855Z,65.20
2018-09-10T02:34:33.316Z,65.10
2018-09-10T02:36:37.824Z,65.10
2018-09-10T02:38:42.317Z,65.10
2018-09-10T02:40:46.907Z,65.10
2018-09-10T02:42:51.387Z,65.00
2018-09-10T02:44:55.899Z,64.90
2018-09-10T02:47:00.411Z,64.80
2018-09-10T02:49:05.055Z,64.70
2018-09-10T02:51:09.600Z,64.80
2018-09-10T02:53:15.193Z,64.60
2018-09-10T02:55:20.303Z,64.60
2018-09-10T02:57:24.944Z,64.40
2018-09-10T02:59:29.460Z,64.50
2018-09-10T03:01:35.043Z,64.50
2018-09-10T03:03:39.575Z,64.60
2018-09-10T03:05:44.058Z,64.60
2018-09-10T03:07:48.730Z,64.50
2018-09-10T03:09:53.535Z,64.70
2018-09-10T03:11:57.948Z,64.70
2018-09-10T03:14:02.387Z,64.80
2018-09-10T03:16:06.910Z,64.90
2018-09-10T03:18:11.351Z,64.90
2018-09-10T03:20:15.783Z,65.00
2018-09-10T03:22:20.559Z,65.00
2018-09-10T03:24:25.106Z,65.00
2018-09-10T03:26:29.613Z,65.10
2018-09-10T03:28:35.190Z,65.20
2018-09-10T03:30:39.748Z,64.50
2018-09-10T03:32:44.637Z,65.30
2018-09-10T03:34:49.303Z,65.20
2018-09-10T03:36:54.168Z,65.10
2018-09-10T03:38:58.702Z,65.80
2018-09-10T03:41:03.174Z,65.00
2018-09-10T03:43:07.633Z,64.90
2018-09-10T03:45:12.103Z,64.90
2018-09-10T03:47:16.642Z,64.90
2018-09-10T03:49:21.143Z,64.90
2018-09-10T03:51:25.656Z,65.00
2018-09-10T03:53:30.409Z,65.20
2018-09-10T03:55:35.813Z,65.20
2018-09-10T03:57:40.704Z,65.30
2018-09-10T03:59:45.354Z,65.20
2018-09-10T04:01:50.098Z,65.30
2018-09-10T04:03:55.662Z,65.40
2018-09-10T04:06:00.139Z,65.50
2018-09-10T04:08:04.695Z,65.60
2018-09-10T04:10:09.215Z,65.60
2018-09-10T04:12:13.759Z,65.70
2018-09-10T04:14:18.186Z,65.70
2018-09-10T04:16:22.732Z,66.10
2018-09-10T04:18:27.839Z,66.10
2018-09-10T04:20:32.594Z,66.20
2018-09-10T04:22:37.407Z,66.20
2018-09-10T04:24:41.979Z,66.30
2018-09-10T04:26:46.447Z,66.30
2018-09-10T04:28:50.911Z,66.30
2018-09-10T04:30:55.982Z,66.30
2018-09-10T04:33:00.507Z,66.40
2018-09-10T04:35:05.372Z,66.40
2018-09-10T04:37:09.862Z,66.50
2018-09-10T04:39:14.323Z,66.50
2018-09-10T04:41:18.808Z,66.50
2018-09-10T04:43:23.235Z,66.70
2018-09-10T04:45:27.743Z,66.80
2018-09-10T04:47:32.258Z,66.80
2018-09-10T04:49:36.707Z,66.90
2018-09-10T04:51:41.175Z,66.80
2018-09-10T04:53:45.610Z,67.10
2018-09-10T04:55:50.040Z,67.20
2018-09-10T04:57:54.554Z,67.30
2018-09-10T04:59:59.046Z,67.50
2018-09-10T05:02:03.556Z,67.50
2018-09-10T05:04:08.053Z,67.60
2018-09-10T05:06:12.555Z,67.60
2018-09-10T05:08:16.976Z,67.60
2018-09-10T05:10:21.455Z,67.70
2018-09-10T05:12:25.949Z,67.70
2018-09-10T05:14:30.388Z,67.60
2018-09-10T05:16:34.883Z,67.50
2018-09-10T05:18:39.344Z,67.50
2018-09-10T05:20:43.819Z,67.40
2018-09-10T05:22:48.296Z,67.50
2018-09-10T05:24:52.743Z,67.50
2018-09-10T05:26:57.211Z,67.50
2018-09-10T05:29:01.730Z,67.30
2018-09-10T05:31:06.282Z,67.50
2018-09-10T05:33:10.785Z,67.50
2018-09-10T05:35:16.370Z,67.50
2018-09-10T05:37:20.881Z,67.40
2018-09-10T05:39:25.366Z,67.30
2018-09-10T05:41:30.080Z,67.40
2018-09-10T05:43:34.471Z,67.40
2018-09-10T05:45:38.995Z,67.50
2018-09-10T05:47:43.750Z,67.50
2018-09-10T05:49:48.210Z,67.80
2018-09-10T05:51:53.531Z,67.80
2018-09-10T05:53:58.070Z,67.80
2018-09-10T05:56:02.529Z,67.80
2018-09-10T05:58:07.040Z,67.80
2018-09-10T06:00:12.423Z,67.70
2018-09-10T06:02:18.461Z,67.90
2018-09-10T06:04:23.155Z,67.80
2018-09-10T06:06:27.586Z,68.60
2018-09-10T06:08:32.048Z,67.80
2018-09-10T06:10:37.096Z,67.80
2018-09-10T06:12:41.655Z,67.60
2018-09-10T06:14:46.083Z,68.00
2018-09-10T06:16:50.681Z,67.90
2018-09-10T06:18:55.149Z,67.90
2018-09-10T06:20:59.624Z,68.00
2018-09-10T06:23:04.207Z,68.00
2018-09-10T06:25:08.687Z,67.50
2018-09-10T06:27:13.155Z,68.20
2018-09-10T06:29:17.642Z,68.30
2018-09-10T06:31:22.226Z,68.40
2018-09-10T06:33:27.419Z,68.30
2018-09-10T06:35:31.996Z,68.60
2018-09-10T06:37:37.375Z,68.70
2018-09-10T06:39:41.820Z,68.70
2018-09-10T06:41:46.296Z,68.70
2018-09-10T06:43:51.035Z,68.80
2018-09-10T06:45:55.492Z,68.70
2018-09-10T06:48:00.494Z,68.90
2018-09-10T06:50:05.186Z,69.00
2018-09-10T06:52:09.885Z,69.20
2018-09-10T06:54:17.265Z,69.40
2018-09-10T06:56:23.731Z,69.40
2018-09-10T06:58:28.498Z,69.40
2018-09-10T07:00:33.044Z,69.50
2018-09-10T07:02:37.899Z,69.60
2018-09-10T07:04:42.364Z,69.40
2018-09-10T07:06:46.859Z,69.50
2018-09-10T07:08:51.339Z,69.50
2018-09-10T07:10:55.786Z,68.60
2018-09-10T07:13:00.311Z,69.20
2018-09-10T07:15:04.980Z,69.40
2018-09-10T07:17:09.449Z,69.60
2018-09-10T07:19:13.916Z,69.70
2018-09-10T07:21:18.631Z,69.80
2018-09-10T07:23:23.327Z,69.80
2018-09-10T07:25:27.796Z,69.90
2018-09-10T07:27:32.439Z,70.00
2018-09-10T07:29:37.742Z,69.90
2018-09-10T07:31:42.178Z,69.30
2018-09-10T07:33:47.518Z,70.30
2018-09-10T07:35:51.951Z,70.50
2018-09-10T07:37:57.553Z,70.70
2018-09-10T07:40:02.893Z,70.70
2018-09-10T07:42:07.482Z,70.90
2018-09-10T07:44:12.067Z,70.90
2018-09-10T07:46:17.658Z,71.30
2018-09-10T07:48:22.115Z,71.40
2018-09-10T07:50:26.572Z,71.80
2018-09-10T07:52:31.002Z,72.10
2018-09-10T07:54:35.509Z,72.40
2018-09-10T07:56:40.018Z,72.60
2018-09-10T07:58:44.598Z,72.60
2018-09-10T08:00:49.273Z,72.60
2018-09-10T08:02:53.742Z,72.60
2018-09-10T08:04:58.239Z,72.40
2018-09-10T08:07:02.682Z,72.20
2018-09-10T08:09:09.183Z,71.90
2018-09-10T08:11:13.963Z,71.40
2018-09-10T08:13:18.450Z,71.10
2018-09-10T08:15:22.928Z,70.90
2018-09-10T08:17:27.363Z,70.60
2018-09-10T08:19:32.226Z,70.80
2018-09-10T08:21:36.907Z,71.00
2018-09-10T08:23:41.610Z,70.60
2018-09-10T08:25:46.351Z,70.80
2018-09-10T08:27:51.303Z,70.30
2018-09-10T08:29:56.194Z,69.90
2018-09-10T08:32:01.027Z,69.60
2018-09-10T08:34:05.544Z,69.50
2018-09-10T08:36:09.990Z,69.20
2018-09-10T08:38:14.489Z,68.90
2018-09-10T08:40:19.711Z,68.40
2018-09-10T08:42:24.607Z,67.90
2018-09-10T08:44:30.694Z,67.60
2018-09-10T08:46:37.591Z,67.30
2018-09-10T08:48:44.409Z,67.10
2018-09-10T08:50:51.592Z,66.90
2018-09-10T08:52:56.071Z,66.70
2018-09-10T08:55:01.331Z,66.70
2018-09-10T08:57:05.860Z,66.50
2018-09-10T08:59:10.342Z,66.30
2018-09-10T09:01:14.882Z,66.20
2018-09-10T09:03:19.340Z,65.90
2018-09-10T09:05:24.170Z,65.30
2018-09-10T09:07:28.629Z,65.20
2018-09-10T09:09:33.115Z,65.00
2018-09-10T09:11:37.991Z,64.70
2018-09-10T09:13:42.471Z,64.60
2018-09-10T09:15:47.860Z,64.20
2018-09-10T09:17:52.306Z,63.60
2018-09-10T09:19:56.767Z,62.90
2018-09-10T09:22:01.504Z,63.00
2018-09-10T09:24:06.005Z,63.00
2018-09-10T09:26:10.508Z,62.70
2018-09-10T09:28:15.119Z,62.40
2018-09-10T09:30:19.710Z,62.40
2018-09-10T09:32:24.115Z,62.00
2018-09-10T09:34:33.983Z,61.90
2018-09-10T09:36:43.728Z,61.10
2018-09-10T09:38:53.411Z,61.10
2018-09-10T09:41:03.013Z,60.70
2018-09-10T09:43:12.611Z,60.40
2018-09-10T09:45:22.322Z,59.80
2018-09-10T09:47:26.930Z,59.80
2018-09-10T09:49:31.471Z,59.40
2018-09-10T09:51:35.943Z,59.40
2018-09-10T09:53:40.434Z,59.10
2018-09-10T09:55:45.187Z,59.00
2018-09-10T09:57:49.996Z,59.10
2018-09-10T09:59:54.771Z,58.70
2018-09-10T10:02:04.406Z,58.50
2018-09-10T10:04:10.999Z,57.80
2018-09-10T10:06:15.450Z,57.40
2018-09-10T10:08:20.132Z,57.80
2018-09-10T10:10:24.654Z,57.10
2018-09-10T10:12:29.627Z,56.60
2018-09-10T10:14:34.370Z,56.90
2018-09-10T10:16:39.235Z,55.70
2018-09-10T10:18:43.887Z,55.40
2018-09-10T10:20:48.414Z,55.00
2018-09-10T10:22:52.885Z,55.10
2018-09-10T10:24:57.326Z,54.10
2018-09-10T10:27:01.919Z,53.50
2018-09-10T10:29:06.739Z,52.80
2018-09-10T10:31:11.257Z,52.80
2018-09-10T10:33:15.719Z,52.30
2018-09-10T10:35:20.201Z,51.90
2018-09-10T10:37:24.670Z,51.30
2018-09-10T10:39:29.862Z,50.90
2018-09-10T10:41:34.426Z,51.30
2018-09-10T10:43:38.909Z,50.70
2018-09-10T10:45:43.460Z,50.60
2018-09-10T10:47:48.335Z,51.00
2018-09-10T10:49:52.914Z,50.70
2018-09-10T10:51:57.465Z,50.80
2018-09-10T10:54:02.025Z,50.50
2018-09-10T10:56:06.578Z,50.90
2018-09-10T10:58:11.281Z,50.90
2018-09-10T11:00:16.594Z,51.00
2018-09-10T11:02:21.507Z,51.00
2018-09-10T11:04:26.256Z,51.20
2018-09-10T11:06:30.930Z,50.80
2018-09-10T11:08:35.454Z,51.10
2018-09-10T11:10:40.954Z,51.10
2018-09-10T11:12:46.263Z,50.70
2018-09-10T11:14:50.815Z,50.70
2018-09-10T11:16:56.677Z,50.80
2018-09-10T11:19:02.336Z,51.00
2018-09-10T11:21:06.882Z,50.60
2018-09-10T11:23:11.435Z,50.50
2018-09-10T11:25:16.192Z,50.70
2018-09-10T11:27:20.835Z,50.70
2018-09-10T11:29:25.325Z,50.70
2018-09-10T11:31:29.831Z,50.70
2018-09-10T11:33:34.906Z,50.60
2018-09-10T11:35:39.363Z,50.50
2018-09-10T11:37:43.858Z,50.50
2018-09-10T11:39:49.214Z,50.50
2018-09-10T11:41:53.678Z,50.50
2018-09-10T11:43:58.172Z,50.50
2018-09-10T11:46:02.611Z,50.20
2018-09-10T11:48:07.348Z,50.20
2018-09-10T11:50:11.808Z,50.50
2018-09-10T11:52:17.449Z,50.60
2018-09-10T11:54:22.026Z,50.40
2018-09-10T11:56:26.630Z,50.60
2018-09-10T11:58:31.126Z,50.10
2018-09-10T12:00:38.152Z,49.50
2018-09-10T12:02:42.746Z,49.70
2018-09-10T12:04:47.617Z,49.60
2018-09-10T12:06:54.012Z,49.50
2018-09-10T12:09:03.985Z,49.40
2018-09-10T12:11:12.895Z,49.30
2018-09-10T12:13:17.662Z,49.40
2018-09-10T12:15:22.671Z,49.60
2018-09-10T12:17:28.240Z,49.80
2018-09-10T12:19:32.878Z,50.00
2018-09-10T12:21:37.390Z,49.70
2018-09-10T12:23:41.987Z,49.40
2018-09-10T12:25:46.658Z,49.30
2018-09-10T12:27:53.399Z,49.90
2018-09-10T12:29:57.978Z,49.40
2018-09-10T12:32:02.940Z,49.50
2018-09-10T12:34:08.635Z,49.90
2018-09-10T12:36:13.110Z,49.50
2018-09-10T12:38:17.629Z,49.50
2018-09-10T12:40:22.140Z,49.40
2018-09-10T12:42:26.915Z,48.80
2018-09-10T12:44:34.362Z,48.90
2018-09-10T12:46:38.866Z,48.40
2018-09-10T12:48:43.384Z,49.00
2018-09-10T12:50:48.510Z,48.80
2018-09-10T12:52:53.559Z,48.70
2018-09-10T12:54:58.226Z,48.60
2018-09-10T12:57:05.295Z,48.30
2018-09-10T12:59:10.119Z,48.40
2018-09-10T13:01:14.608Z,48.40
2018-09-10T13:03:19.090Z,48.60
2018-09-10T13:05:23.991Z,48.50
2018-09-10T13:07:28.455Z,48.60
2018-09-10T13:09:33.164Z,48.70
2018-09-10T13:11:37.614Z,48.80
2018-09-10T13:13:42.115Z,48.80
2018-09-10T13:15:46.578Z,48.50
2018-09-10T13:17:51.128Z,48.60
2018-09-10T13:19:55.560Z,48.70
2018-09-10T13:22:00.019Z,48.50
2018-09-10T13:24:04.545Z,48.50
2018-09-10T13:26:08.978Z,48.40
2018-09-10T13:28:13.423Z,48.30
2018-09-10T13:30:17.944Z,48.30
2018-09-10T13:32:22.503Z,48.60
2018-09-10T13:34:27.156Z,48.30
2018-09-10T13:36:31.741Z,48.20
2018-09-10T13:38:36.242Z,47.80
2018-09-10T13:40:40.776Z,47.70
2018-09-10T13:42:45.347Z,47.80
2018-09-10T13:44:49.852Z,47.50
2018-09-10T13:46:54.299Z,47.70
2018-09-10T13:48:58.766Z,47.40
2018-09-10T13:51:03.204Z,46.90
2018-09-10T13:53:07.947Z,46.70
2018-09-10T13:55:12.401Z,46.50
2018-09-10T13:57:16.871Z,46.80
2018-09-10T13:59:21.372Z,47.00
2018-09-10T14:01:25.935Z,46.50
2018-09-10T14:03:30.386Z,46.20
2018-09-10T14:05:35.499Z,46.10
2018-09-10T14:07:41.238Z,46.50
2018-09-10T14:09:45.835Z,47.00
2018-09-10T14:11:50.608Z,46.90
2018-09-10T14:13:55.093Z,46.90
2018-09-10T14:15:59.544Z,46.70
2018-09-10T14:18:04.038Z,46.80
2018-09-10T14:20:08.582Z,46.30
2018-09-10T14:22:13.071Z,46.50
2018-09-10T14:24:17.582Z,46.20
2018-09-10T14:26:22.156Z,46.00
2018-09-10T14:28:26.700Z,46.10
2018-09-10T14:30:31.210Z,46.00
2018-09-10T14:32:35.755Z,45.80
2018-09-10T14:34:40.348Z,46.00
2018-09-10T14:36:45.182Z,46.10
2018-09-10T14:38:50.663Z,46.00
2018-09-10T14:40:55.231Z,46.10
2018-09-10T14:42:59.747Z,46.00
2018-09-10T14:45:04.247Z,46.00
2018-09-10T14:47:08.715Z,46.30
2018-09-10T14:49:13.165Z,46.30
2018-09-10T14:51:17.639Z,46.50
2018-09-10T14:53:22.103Z,46.20
2018-09-10T14:55:27.026Z,46.00
2018-09-10T14:57:31.473Z,46.00
2018-09-10T14:59:35.968Z,46.50
2018-09-10T15:01:40.448Z,46.80
2018-09-10T15:03:44.944Z,46.60
2018-09-10T15:05:52.008Z,46.10
2018-09-10T15:07:56.551Z,46.10
2018-09-10T15:10:09.458Z,46.00
2018-09-10T15:12:14.015Z,46.10
2018-09-10T15:14:19.663Z,46.10
2018-09-10T15:16:24.238Z,46.30
2018-09-10T15:18:29.104Z,46.60
2018-09-10T15:20:33.636Z,46.80
2018-09-10T15:22:38.105Z,46.50
2018-09-10T15:24:42.716Z,46.60
2018-09-10T15:26:47.192Z,46.10
2018-09-10T15:28:51.699Z,46.10
2018-09-10T15:30:56.172Z,46.30
2018-09-10T15:33:00.634Z,46.00
2018-09-10T15:35:05.144Z,46.10
2018-09-10T15:37:09.638Z,46.10
2018-09-10T15:39:14.118Z,46.20
2018-09-10T15:41:18.564Z,46.30
2018-09-10T15:43:23.077Z,46.60
2018-09-10T15:45:27.518Z,46.20
2018-09-10T15:47:31.992Z,46.30
2018-09-10T15:49:36.452Z,46.40
2018-09-10T15:51:40.935Z,46.10
2018-09-10T15:53:46.354Z,45.80
2018-09-10T15:55:50.934Z,46.10
2018-09-10T15:57:55.410Z,45.80
2018-09-10T15:59:59.955Z,45.80
2018-09-10T16:02:04.411Z,45.60
2018-09-10T16:04:08.904Z,45.80
2018-09-10T16:06:13.531Z,45.70
2018-09-10T16:08:18.089Z,45.80
2018-09-10T16:10:24.774Z,44.70
2018-09-10T16:12:29.561Z,45.30
2018-09-10T16:14:34.045Z,45.70
2018-09-10T16:16:38.512Z,45.80
2018-09-10T16:18:43.007Z,45.80
2018-09-10T16:20:49.327Z,46.00
2018-09-10T16:22:54.446Z,46.10
2018-09-10T16:24:58.903Z,46.70
2018-09-10T16:27:03.457Z,47.60
2018-09-10T16:29:08.678Z,47.50
2018-09-10T16:31:13.176Z,47.80
2018-09-10T16:33:17.644Z,47.90
2018-09-10T16:35:22.147Z,48.80
2018-09-10T16:37:26.748Z,48.80
2018-09-10T16:39:31.255Z,49.40
2018-09-10T16:41:35.830Z,49.50
2018-09-10T16:43:40.292Z,49.40
2018-09-10T16:45:44.766Z,49.70
2018-09-10T16:47:49.196Z,49.80
2018-09-10T16:49:53.655Z,50.10
2018-09-10T16:51:58.179Z,50.20
2018-09-10T16:54:02.655Z,50.20
2018-09-10T16:56:07.215Z,50.30
2018-09-10T16:58:11.939Z,50.40
2018-09-10T17:00:16.397Z,50.70
2018-09-10T17:02:20.908Z,50.80
2018-09-10T17:04:25.426Z,50.80
2018-09-10T17:06:29.929Z,50.70
2018-09-10T17:08:34.401Z,50.70
2018-09-10T17:10:42.471Z,50.70
2018-09-10T17:12:46.999Z,50.80
2018-09-10T17:14:51.568Z,50.70
2018-09-10T17:16:56.021Z,50.60
2018-09-10T17:19:00.628Z,50.60
2018-09-10T17:21:05.263Z,50.80
2018-09-10T17:23:10.027Z,50.90
2018-09-10T17:25:14.571Z,51.10
2018-09-10T17:27:19.142Z,51.20
2018-09-10T17:29:23.632Z,51.50
2018-09-10T17:31:28.150Z,51.40
2018-09-10T17:33:32.830Z,51.60
2018-09-10T17:35:37.402Z,51.60
2018-09-10T17:37:41.987Z,51.70
2018-09-10T17:39:47.294Z,51.80
2018-09-10T17:41:51.826Z,51.70
2018-09-10T17:43:56.327Z,51.80
2018-09-10T17:46:00.808Z,52.00
2018-09-10T17:48:05.519Z,52.00
2018-09-10T17:50:10.463Z,52.10
2018-09-10T17:52:18.736Z,52.10
2018-09-10T17:54:23.431Z,52.20
2018-09-10T17:56:27.906Z,52.30
2018-09-10T17:58:32.471Z,52.30
2018-09-10T18:00:40.779Z,52.50
2018-09-10T18:02:45.207Z,52.70
2018-09-10T18:04:49.700Z,52.80
2018-09-10T18:06:54.159Z,52.90
2018-09-10T18:08:58.734Z,53.30
2018-09-10T18:11:03.252Z,53.30
2018-09-10T18:13:08.724Z,53.60
2018-09-10T18:15:13.258Z,53.70
2018-09-10T18:17:18.132Z,53.80
2018-09-10T18:19:22.911Z,54.30
2018-09-10T18:21:27.434Z,54.30
2018-09-10T18:23:32.506Z,54.30
2018-09-10T18:25:37.080Z,54.30
2018-09-10T18:27:41.740Z,54.20
2018-09-10T18:29:47.339Z,54.40
2018-09-10T18:31:51.892Z,54.40
2018-09-10T18:33:56.457Z,54.50
2018-09-10T18:36:01.021Z,54.60
2018-09-10T18:38:05.517Z,54.70
2018-09-10T18:40:10.038Z,54.80
2018-09-10T18:42:14.590Z,54.90
2018-09-10T18:44:19.170Z,54.90
2018-09-10T18:46:23.686Z,54.90
2018-09-10T18:48:28.179Z,54.90
2018-09-10T18:50:33.028Z,54.90
2018-09-10T18:52:37.482Z,54.80
2018-09-10T18:54:41.923Z,54.90
2018-09-10T18:56:46.449Z,54.90
2018-09-10T18:58:51.011Z,55.00
2018-09-10T19:00:55.502Z,55.10
2018-09-10T19:02:59.943Z,55.00
2018-09-10T19:05:04.414Z,55.00
2018-09-10T19:07:09.171Z,55.00
2018-09-10T19:09:13.691Z,55.10
2018-09-10T19:11:18.157Z,55.10
2018-09-10T19:13:22.817Z,55.10
2018-09-10T19:15:27.821Z,55.00
2018-09-10T19:17:32.385Z,55.10
2018-09-10T19:19:36.925Z,55.20
2018-09-10T19:21:42.795Z,55.30
2018-09-10T19:23:48.712Z,55.40
2018-09-10T19:25:57.111Z,55.50
2018-09-10T19:28:02.762Z,55.50
2018-09-10T19:30:08.582Z,55.50
2018-09-10T19:32:13.075Z,55.50
2018-09-10T19:34:17.611Z,55.50
2018-09-10T19:36:22.123Z,55.60
2018-09-10T19:38:26.731Z,55.70
2018-09-10T19:40:31.270Z,55.80
2018-09-10T19:42:35.754Z,55.80
2018-09-10T19:44:42.121Z,55.90
2018-09-10T19:46:46.744Z,55.80
2018-09-10T19:48:51.331Z,55.80
2018-09-10T19:50:55.970Z,56.50
2018-09-10T19:53:00.471Z,56.00
2018-09-10T19:55:05.285Z,56.00
2018-09-10T19:57:10.298Z,56.10
2018-09-10T19:59:14.838Z,56.00
2018-09-10T20:01:19.302Z,56.10
2018-09-10T20:03:23.899Z,56.90
2018-09-10T20:05:28.407Z,56.70
2018-09-10T20:07:33.223Z,56.80
2018-09-10T20:09:37.732Z,56.70
2018-09-10T20:11:42.376Z,56.70
2018-09-10T20:13:46.849Z,57.10
2018-09-10T20:15:51.330Z,56.90
2018-09-10T20:17:55.830Z,56.80
2018-09-10T20:20:00.323Z,56.90
2018-09-10T20:22:05.095Z,57.70
2018-09-10T20:24:09.602Z,57.20
2018-09-10T20:26:17.064Z,57.30
2018-09-10T20:28:21.871Z,57.30
2018-09-10T20:30:26.387Z,57.40
2018-09-10T20:32:30.811Z,57.50
2018-09-10T20:34:35.404Z,57.50
2018-09-10T20:36:40.208Z,57.50
2018-09-10T20:38:44.722Z,57.50
2018-09-10T20:40:49.181Z,57.50
2018-09-10T20:42:53.735Z,57.50
2018-09-10T20:44:58.975Z,57.60
2018-09-10T20:47:03.534Z,57.60
2018-09-10T20:49:08.987Z,57.70
2018-09-10T20:51:13.526Z,57.70
2018-09-10T20:53:18.035Z,57.80
2018-09-10T20:55:22.567Z,57.90
2018-09-10T20:57:27.223Z,57.80
2018-09-10T20:59:32.455Z,57.90
2018-09-10T21:01:37.041Z,57.90
2018-09-10T21:03:41.525Z,57.90
2018-09-10T21:05:46.019Z,58.00
2018-09-10T21:07:50.539Z,58.00
2018-09-10T21:09:55.001Z,58.10
2018-09-10T21:11:59.507Z,58.10
2018-09-10T21:14:05.060Z,58.10
2018-09-10T21:16:09.559Z,58.20
2018-09-10T21:18:14.956Z,58.20
2018-09-10T21:20:21.139Z,58.30
2018-09-10T21:22:25.705Z,58.30
2018-09-10T21:24:30.618Z,58.30
2018-09-10T21:26:35.240Z,58.30
2018-09-10T21:28:39.663Z,58.30
2018-09-10T21:30:44.293Z,58.40
2018-09-10T21:32:49.166Z,58.40
2018-09-10T21:34:53.716Z,58.40
2018-09-10T21:36:58.206Z,58.50
2018-09-10T21:39:02.834Z,58.50
2018-09-10T21:41:07.309Z,58.70
2018-09-10T21:43:11.787Z,58.80
2018-09-10T21:45:16.260Z,58.80
2018-09-10T21:47:20.751Z,58.80
2018-09-10T21:49:25.221Z,58.80
2018-09-10T21:51:29.766Z,58.80
2018-09-10T21:53:34.225Z,58.80
2018-09-10T21:55:38.859Z,58.40
2018-09-10T21:57:43.331Z,59.10
2018-09-10T21:59:47.894Z,59.10
2018-09-10T22:01:52.466Z,59.20
2018-09-10T22:03:57.506Z,59.20
2018-09-10T22:06:02.026Z,59.40
2018-09-10T22:08:08.332Z,59.40
2018-09-10T22:10:12.995Z,59.60
2018-09-10T22:12:17.401Z,60.40
2018-09-10T22:14:21.934Z,59.70
2018-09-10T22:16:26.470Z,59.70
2018-09-10T22:18:31.127Z,59.80
2018-09-10T22:20:35.650Z,59.80
2018-09-10T22:22:40.088Z,59.90
2018-09-10T22:24:44.616Z,60.00
2018-09-10T22:26:49.527Z,60.00
2018-09-10T22:28:54.388Z,60.00
2018-09-10T22:30:58.936Z,60.00
2018-09-10T22:33:03.383Z,60.00
2018-09-10T22:35:08.031Z,59.90
2018-09-10T22:37:12.509Z,59.90
2018-09-10T22:39:17.012Z,59.90
2018-09-10T22:41:21.454Z,60.00
2018-09-10T22:43:25.934Z,60.00
2018-09-10T22:45:30.485Z,59.90
2018-09-10T22:47:35.230Z,60.00
2018-09-10T22:49:39.662Z,59.90
2018-09-10T22:51:44.150Z,59.80
2018-09-10T22:53:49.851Z,59.90
2018-09-10T22:55:54.318Z,60.00
2018-09-10T22:57:58.815Z,60.10
2018-09-10T23:00:03.319Z,60.10
2018-09-10T23:02:07.791Z,60.10
2018-09-10T23:04:12.379Z,60.20
2018-09-10T23:06:16.947Z,61.10
2018-09-10T23:08:21.431Z,60.30
2018-09-10T23:10:25.929Z,60.30
2018-09-10T23:12:30.387Z,60.40
2018-09-10T23:14:34.843Z,60.50
2018-09-10T23:16:39.337Z,60.50
2018-09-10T23:18:43.836Z,60.60
2018-09-10T23:20:48.312Z,60.70
2018-09-10T23:22:53.020Z,60.80
2018-09-10T23:24:57.454Z,60.80
2018-09-10T23:27:01.960Z,60.80
2018-09-10T23:29:06.465Z,60.90
2018-09-10T23:31:11.615Z,61.00
2018-09-10T23:33:16.083Z,60.90
2018-09-10T23:35:20.522Z,60.90
2018-09-10T23:37:24.994Z,60.20
2018-09-10T23:39:30.148Z,61.10
2018-09-10T23:41:34.618Z,61.10
2018-09-10T23:43:39.351Z,61.00
2018-09-10T23:45:43.825Z,61.10
2018-09-10T23:47:48.613Z,61.10
2018-09-10T23:49:53.086Z,61.20
2018-09-10T23:51:57.638Z,61.30
2018-09-10T23:54:02.098Z,61.30
2018-09-10T23:56:06.640Z,61.20
2018-09-10T23:58:11.067Z,61.20
